Time;durP1;ratioP1;P1;durP2;ratioP2;P2;SDS_P1;SDS_P2;PMS_P1;PMS_P2;Temp;Humidity;BMP_temperature;BMP_pressure;BME280_temperature;BME280_humidity;BME280_pressure;Samples;Min_cycle;Max_cycle;Signal;HPM_P1;HPM_P2
2023/01/29 00:01:13;;;;;;;5.18;2.85;;;;;;;3.52;54.87;101702.63;10283617;28;20047;-63
2023/01/29 00:06:15;;;;;;;6.95;3.80;;;;;;;3.47;55.01;101712.66;10288447;28;20517;-63
2023/01/29 00:11:16;;;;;;;5.68;2.65;;;;;;;3.35;55.09;101709.81;10287755;28;20609;-63
2023/01/29 00:16:18;;;;;;;4.30;2.75;;;;;;;3.24;55.15;101706.13;10288834;28;20082;-62
2023/01/29 00:21:21;;;;;;;3.50;2.40;;;;;;;3.12;55.54;101719.22;10286742;28;20050;-63
2023/01/29 00:26:22;;;;;;;5.55;3.83;;;;;;;3.14;55.65;101733.28;10288593;28;20035;-62
2023/01/29 00:31:24;;;;;;;5.10;3.53;;;;;;;3.27;55.30;101716.56;10290043;28;20035;-61
2023/01/29 00:36:26;;;;;;;4.68;3.47;;;;;;;3.13;55.78;101720.06;10290742;28;20034;-61
2023/01/29 00:46:49;;;;;;;4.97;3.05;;;;;;;3.09;55.33;101703.47;10287207;28;20047;-61
2023/01/29 00:57:11;;;;;;;4.35;2.78;;;;;;;3.06;55.78;101706.34;10288988;28;20054;-61
2023/01/29 01:07:33;;;;;;;5.53;3.65;;;;;;;3.08;55.37;101692.94;10286639;28;20035;-63
2023/01/29 01:12:34;;;;;;;6.20;3.70;;;;;;;3.15;55.25;101688.97;10283529;28;20067;-61
2023/01/29 01:17:35;;;;;;;5.85;3.30;;;;;;;3.12;55.51;101687.34;10285151;28;20043;-61
2023/01/29 01:22:37;;;;;;;6.20;2.70;;;;;;;2.89;55.46;101682.59;10286460;28;20047;-61
2023/01/29 01:27:40;;;;;;;5.18;3.00;;;;;;;2.93;55.94;101681.47;10288085;28;20051;-61
2023/01/29 01:32:42;;;;;;;6.75;3.55;;;;;;;2.98;55.74;101660.75;10289160;28;20058;-62
2023/01/29 01:37:43;;;;;;;4.93;3.10;;;;;;;2.94;55.75;101653.94;10287725;28;20089;-60
2023/01/29 01:42:57;;;;;;;4.70;3.50;;;;;;;2.90;55.52;101647.97;10285260;28;20051;-61
2023/01/29 01:48:22;;;;;;;4.70;3.25;;;;;;;2.88;55.84;101641.88;10277537;28;20052;-61
2023/01/29 01:53:40;;;;;;;5.72;3.95;;;;;;;2.95;55.36;101639.72;10283907;28;20035;-61
2023/01/29 01:58:49;;;;;;;7.15;3.28;;;;;;;2.81;55.29;101631.75;10286437;28;20051;-62
2023/01/29 02:09:37;;;;;;;4.47;3.27;;;;;;;2.71;55.88;101639.44;10239586;28;20113;-63
2023/01/29 02:14:40;;;;;;;5.03;3.50;;;;;;;2.77;55.64;101642.56;10238788;28;20540;-64
2023/01/29 02:20:03;;;;;;;6.80;3.45;;;;;;;2.79;55.54;101645.13;10234580;28;20051;-65
2023/01/29 02:25:32;;;;;;;5.03;3.15;;;;;;;2.75;55.89;101649.75;10239967;28;20102;-65
2023/01/29 02:30:43;;;;;;;7.63;4.15;;;;;;;2.68;56.12;101655.53;10239236;28;20094;-64
2023/01/29 02:35:55;;;;;;;6.88;3.60;;;;;;;2.61;56.38;101670.97;10240789;28;20062;-64
2023/01/29 02:41:07;;;;;;;6.32;3.85;;;;;;;2.61;55.75;101675.41;10239857;28;20058;-63
2023/01/29 02:46:22;;;;;;;6.13;3.40;;;;;;;2.51;56.06;101691.06;10237060;28;20392;-62
2023/01/29 02:51:49;;;;;;;6.35;3.70;;;;;;;2.48;56.41;101677.97;10246000;28;20062;-65
2023/01/29 02:56:56;;;;;;;4.32;3.28;;;;;;;2.47;56.86;101679.75;10247276;28;20052;-64
2023/01/29 03:02:06;;;;;;;6.40;3.13;;;;;;;2.56;56.00;101668.59;10246799;28;20074;-65
2023/01/29 03:07:39;;;;;;;4.93;3.25;;;;;;;2.68;56.28;101659.03;10244482;28;20941;-64
2023/01/29 03:12:39;;;;;;;7.10;3.05;;;;;;;2.61;56.51;101659.50;10246362;28;20082;-65
2023/01/29 03:17:51;;;;;;;8.13;3.70;;;;;;;2.63;56.29;101657.63;10229395;28;20142;-64
2023/01/29 03:22:57;;;;;;;5.93;3.33;;;;;;;2.75;55.49;101657.72;10244827;28;20078;-64
2023/01/29 03:33:26;;;;;;;9.98;4.22;;;;;;;2.83;55.18;101675.84;10243253;28;20109;-64
2023/01/29 03:38:28;;;;;;;7.20;4.35;;;;;;;2.83;55.17;101667.88;10241717;28;20051;-63
2023/01/29 03:43:44;;;;;;;5.50;4.13;;;;;;;2.82;55.53;101660.00;10245401;28;20043;-66
2023/01/29 03:49:12;;;;;;;7.40;4.50;;;;;;;2.76;55.53;101653.25;10244060;28;20100;-64
2023/01/29 03:54:33;;;;;;;;;;;;;;;2.61;56.12;101668.31;10241240;28;20043;-65
2023/01/29 03:59:45;;;;;;;8.93;4.70;;;;;;;2.57;55.91;101670.31;10246122;28;19962;-64
2023/01/29 04:04:50;;;;;;;7.05;4.70;;;;;;;2.50;56.26;101679.56;10246120;28;20106;-63
2023/01/29 04:09:59;;;;;;;6.63;4.10;;;;;;;1.97;57.29;101673.81;10242776;28;20055;-64
2023/01/29 04:15:01;;;;;;;8.55;3.80;;;;;;;1.82;57.90;101657.88;10226201;28;20160;-64
2023/01/29 04:20:03;;;;;;;5.82;3.85;;;;;;;1.73;57.90;101641.56;10242273;28;20135;-64
2023/01/29 04:25:14;;;;;;;5.05;3.85;;;;;;;1.59;57.95;101647.66;10242035;28;20134;-64
2023/01/29 04:30:40;;;;;;;4.85;3.78;;;;;;;1.50;58.13;101640.22;10241862;28;20047;-65
2023/01/29 04:35:47;;;;;;;7.55;4.03;;;;;;;1.30;58.92;101667.78;10240088;28;20130;-64
2023/01/29 04:41:00;;;;;;;6.80;4.15;;;;;;;1.47;58.54;101666.88;10241073;28;20078;-65
2023/01/29 04:46:12;;;;;;;6.50;4.03;;;;;;;1.47;57.83;101668.69;10239322;28;20074;-64
2023/01/29 04:51:23;;;;;;;6.53;4.28;;;;;;;1.43;58.87;101669.78;10240127;28;20134;-65
2023/01/29 04:56:39;;;;;;;7.15;4.80;;;;;;;1.37;58.02;101666.53;10240114;28;20162;-64
2023/01/29 05:01:41;;;;;;;6.35;4.07;;;;;;;1.36;58.82;101662.19;10239631;28;20051;-65
2023/01/29 05:06:45;;;;;;;7.85;4.63;;;;;;;1.35;58.31;101668.41;10237631;28;20188;-63
2023/01/29 05:11:49;;;;;;;7.22;4.13;;;;;;;1.27;58.28;101660.03;10240382;28;20054;-63
2023/01/29 05:16:52;;;;;;;7.20;3.95;;;;;;;1.23;58.75;101655.00;10238653;28;20135;-64
2023/01/29 05:21:54;;;;;;;6.57;4.10;;;;;;;1.10;59.56;101630.97;10239569;28;20062;-62
2023/01/29 05:32:15;;;;;;;9.65;5.13;;;;;;;1.15;59.64;101642.16;10240117;28;20158;-63
2023/01/29 05:37:16;;;;;;;9.15;4.47;;;;;;;1.07;59.09;101660.25;10239950;28;20142;-62
2023/01/29 05:42:18;;;;;;;8.30;5.10;;;;;;;0.87;59.63;101648.94;10239838;28;20055;-62
2023/01/29 05:47:19;;;;;;;10.15;4.25;;;;;;;0.83;60.03;101652.69;10238936;28;20054;-64
2023/01/29 05:52:21;;;;;;;9.05;4.50;;;;;;;0.75;60.75;101653.09;10238697;28;20074;-63
2023/01/29 05:57:22;;;;;;;10.38;5.05;;;;;;;0.83;60.34;101657.97;10238734;28;20121;-64
2023/01/29 06:02:23;;;;;;;8.38;4.53;;;;;;;0.81;60.22;101666.91;10239193;28;20134;-63
2023/01/29 06:07:25;;;;;;;10.43;4.53;;;;;;;0.73;60.18;101676.13;10236711;28;20158;-63
2023/01/29 06:12:27;;;;;;;7.90;3.88;;;;;;;0.68;60.82;101662.28;10239260;28;20055;-64
2023/01/29 06:17:28;;;;;;;7.22;4.53;;;;;;;0.66;60.45;101647.41;10237417;28;20047;-63
2023/01/29 06:22:29;;;;;;;11.88;4.28;;;;;;;0.59;61.50;101639.81;10240041;28;20141;-64
2023/01/29 06:27:31;;;;;;;10.80;4.63;;;;;;;0.59;60.98;101644.22;10244702;28;20086;-65
2023/01/29 06:32:32;;;;;;;8.75;4.55;;;;;;;0.54;61.34;101623.31;10244269;28;20202;-64
2023/01/29 06:37:34;;;;;;;8.32;4.63;;;;;;;0.67;60.80;101635.88;10243799;28;20086;-64
2023/01/29 06:42:35;;;;;;;7.43;4.05;;;;;;;0.74;61.55;101630.19;10244894;28;20080;-64
2023/01/29 06:47:36;;;;;;;8.90;4.35;;;;;;;0.73;61.22;101638.22;10245469;28;20070;-63
2023/01/29 06:52:38;;;;;;;8.48;5.22;;;;;;;0.81;61.52;101643.09;10229526;28;20082;-63
2023/01/29 06:57:39;;;;;;;8.18;5.22;;;;;;;0.97;60.51;101652.81;10242912;28;20113;-64
2023/01/29 07:02:40;;;;;;;8.65;4.93;;;;;;;1.15;60.49;101663.34;10248922;28;20051;-63
2023/01/29 07:07:42;;;;;;;13.23;4.97;;;;;;;1.34;60.66;101664.06;10252794;28;20110;-63
2023/01/29 07:12:43;;;;;;;9.60;5.80;;;;;;;1.44;60.13;101682.09;10252833;28;20051;-63
2023/01/29 07:18:02;;;;;;;9.68;5.55;;;;;;;1.54;60.08;101678.00;10242476;28;20111;-64
2023/01/29 07:23:04;;;;;;;12.93;5.72;;;;;;;1.53;59.74;101676.28;10263451;28;20047;-63
2023/01/29 07:28:06;;;;;;;9.48;6.20;;;;;;;1.51;60.14;101676.38;10250634;28;20054;-63
2023/01/29 07:33:09;;;;;;;11.98;5.30;;;;;;;1.65;60.25;101680.06;10247290;28;20146;-63
2023/01/29 07:38:10;;;;;;;12.90;6.80;;;;;;;1.66;59.78;101661.44;10260529;28;20776;-63
2023/01/29 07:43:12;;;;;;;10.68;5.55;;;;;;;1.64;60.48;101647.41;10254926;28;20193;-64
2023/01/29 07:48:14;;;;;;;12.00;6.43;;;;;;;1.64;60.54;101651.84;10249018;28;20051;-63
2023/01/29 07:53:15;;;;;;;8.90;5.28;;;;;;;1.54;60.79;101651.50;10248919;28;20106;-64
2023/01/29 07:58:17;;;;;;;12.70;6.70;;;;;;;1.54;61.17;101656.78;10245730;28;20051;-64
2023/01/29 08:03:19;;;;;;;12.98;7.10;;;;;;;1.60;60.06;101669.72;10248981;28;20419;-62
2023/01/29 08:08:20;;;;;;;12.43;6.78;;;;;;;1.69;60.85;101673.66;10253753;28;20048;-63
2023/01/29 08:13:22;;;;;;;11.85;6.93;;;;;;;1.74;59.96;101698.97;10257107;28;20056;-64
2023/01/29 08:18:23;;;;;;;11.63;7.22;;;;;;;1.68;60.74;101679.88;10249250;28;20063;-64
2023/01/29 08:23:24;;;;;;;14.90;7.43;;;;;;;1.76;60.01;101667.91;10256053;28;20133;-64
2023/01/29 08:28:26;;;;;;;13.60;8.00;;;;;;;1.80;59.98;101658.00;10250506;28;20051;-64
2023/01/29 08:33:28;;;;;;;13.43;7.45;;;;;;;1.85;59.39;101661.22;10255611;28;20058;-63
2023/01/29 08:38:40;;;;;;;10.23;6.07;;;;;;;1.64;60.91;101686.28;10250567;28;20051;-64
2023/01/29 08:43:41;;;;;;;13.65;7.35;;;;;;;1.79;59.94;101670.38;10254850;28;20122;-64
2023/01/29 08:48:42;;;;;;;14.85;6.25;;;;;;;1.51;60.00;101668.41;10251821;28;20063;-64
2023/01/29 08:53:44;;;;;;;11.63;6.20;;;;;;;1.46;60.27;101686.38;10243193;28;20143;-64
2023/01/29 08:58:45;;;;;;;10.75;6.68;;;;;;;1.68;60.57;101685.16;10241366;28;20134;-65
2023/01/29 09:03:47;;;;;;;12.63;6.10;;;;;;;1.58;60.55;101690.16;10238755;28;20138;-65
2023/01/29 09:08:48;;;;;;;10.50;6.40;;;;;;;1.32;60.69;101699.50;10250191;28;20070;-64
2023/01/29 09:13:50;;;;;;;11.93;6.53;;;;;;;1.53;60.87;101716.88;10248430;28;20795;-65
2023/01/29 09:18:52;;;;;;;13.48;5.95;;;;;;;1.90;59.98;101716.66;10241478;28;20043;-65
2023/01/29 09:23:53;;;;;;;9.07;5.72;;;;;;;2.02;60.12;101713.31;10249323;28;20447;-65
2023/01/29 09:28:55;;;;;;;10.65;5.65;;;;;;;2.24;59.56;101722.69;10247421;28;20106;-66
2023/01/29 09:33:56;;;;;;;16.40;7.05;;;;;;;2.12;59.64;101730.41;10239045;28;20142;-65
2023/01/29 09:38:57;;;;;;;15.35;7.20;;;;;;;2.46;59.71;101709.88;10237873;28;20103;-65
2023/01/29 09:44:10;;;;;;;14.20;7.72;;;;;;;2.49;59.30;101715.03;10247797;28;20042;-65
2023/01/29 09:49:21;;;;;;;7.45;5.13;;;;;;;2.61;58.65;101716.09;10243855;28;20469;-65
2023/01/29 09:54:35;;;;;;;11.15;5.57;;;;;;;2.52;59.18;101720.13;10243817;28;20087;-66
2023/01/29 09:59:37;;;;;;;11.70;6.35;;;;;;;2.64;58.44;101725.69;10268827;28;20047;-64
2023/01/29 10:04:58;;;;;;;8.15;5.63;;;;;;;2.89;57.91;101701.19;10259895;28;20081;-64
2023/01/29 10:10:10;;;;;;;8.20;5.68;;;;;;;2.79;58.12;101663.72;10252433;28;20090;-65
2023/01/29 10:15:19;;;;;;;12.20;7.05;;;;;;;2.79;57.74;101666.38;10255746;28;20035;-64
2023/01/29 10:20:35;;;;;;;10.13;6.15;;;;;;;2.69;58.52;101657.25;10254922;28;20059;-64
2023/01/29 10:25:40;;;;;;;11.25;6.97;;;;;;;2.78;57.74;101649.59;10248328;28;20047;-64
2023/01/29 10:30:46;;;;;;;15.05;8.55;;;;;;;2.81;58.01;101639.72;10255124;28;20075;-64
2023/01/29 10:35:54;;;;;;;13.05;7.15;;;;;;;3.04;57.60;101630.31;10265088;28;20071;-64
2023/01/29 10:41:10;;;;;;;20.13;7.80;;;;;;;3.31;57.66;101625.06;10264464;28;20054;-64
2023/01/29 10:46:46;;;;;;;12.10;7.28;;;;;;;3.43;57.20;101624.28;10244138;28;20051;-64
2023/01/29 10:52:22;;;;;;;12.93;7.45;;;;;;;3.38;57.44;101610.47;10247474;28;20090;-63
2023/01/29 10:57:51;;;;;;;15.10;7.93;;;;;;;3.51;56.87;101597.22;10244122;28;20078;-63
2023/01/29 11:02:52;;;;;;;14.63;8.05;;;;;;;3.58;56.83;101588.75;10245229;28;20523;-63
2023/01/29 11:08:12;;;;;;;14.30;7.57;;;;;;;3.59;56.77;101570.97;10243181;28;20090;-63
2023/01/29 11:13:15;;;;;;;12.18;7.60;;;;;;;3.62;56.31;101568.13;10246822;28;20138;-63
2023/01/29 11:18:16;;;;;;;15.60;6.38;;;;;;;3.35;56.63;101571.63;10248524;28;20094;-64
2023/01/29 11:23:28;;;;;;;17.35;9.10;;;;;;;3.13;57.46;101574.81;10265854;28;20554;-65
2023/01/29 11:28:41;;;;;;;14.25;8.32;;;;;;;3.24;57.04;101566.16;10259010;28;20043;-64
2023/01/29 11:33:44;;;;;;;17.15;8.82;;;;;;;3.40;56.52;101547.44;10253455;28;20538;-63
2023/01/29 11:38:45;;;;;;;16.83;8.63;;;;;;;3.37;56.98;101535.16;10245192;28;20071;-70
2023/01/29 11:43:46;;;;;;;15.38;8.38;;;;;;;3.22;56.44;101536.19;10245155;28;20079;-69
2023/01/29 11:48:53;;;;;;;16.40;8.63;;;;;;;3.31;56.30;101521.44;10240650;28;20142;-69
2023/01/29 11:54:16;;;;;;;14.98;8.35;;;;;;;3.48;56.43;101515.03;10235010;28;20070;-70
2023/01/29 11:59:36;;;;;;;13.50;8.27;;;;;;;3.36;56.36;101500.75;10237105;28;20085;-69
2023/01/29 12:04:38;;;;;;;12.65;7.95;;;;;;;3.40;56.12;101509.34;10242460;28;20146;-68
2023/01/29 12:09:40;;;;;;;18.90;9.13;;;;;;;3.67;55.83;101496.03;10239288;28;20081;-63
2023/01/29 12:14:42;;;;;;;15.00;7.78;;;;;;;3.61;55.61;101478.69;10235575;28;20130;-63
2023/01/29 12:19:53;;;;;;;12.90;7.45;;;;;;;3.61;55.66;101475.19;10237985;28;20109;-64
2023/01/29 12:25:17;;;;;;;12.13;6.80;;;;;;;3.49;55.93;101452.94;10241900;28;20138;-63
2023/01/29 12:30:30;;;;;;;14.95;7.50;;;;;;;3.45;55.69;101446.13;10236650;28;20138;-64
2023/01/29 12:35:37;;;;;;;11.93;6.38;;;;;;;3.40;56.14;101443.78;10235997;28;20431;-63
2023/01/29 12:40:43;;;;;;;14.45;7.60;;;;;;;3.38;56.10;101446.53;10236936;28;20566;-63
2023/01/29 12:45:51;;;;;;;11.48;6.20;;;;;;;3.36;56.03;101434.31;10237904;28;20071;-63
2023/01/29 12:50:58;;;;;;;10.40;6.10;;;;;;;3.35;56.05;101421.97;10237391;28;20052;-63
2023/01/29 12:56:08;;;;;;;11.23;6.47;;;;;;;3.43;55.82;101422.28;10243456;28;20168;-64
2023/01/29 13:01:35;;;;;;;10.82;6.40;;;;;;;3.29;55.84;101396.66;10244435;28;20067;-65
2023/01/29 13:06:48;;;;;;;13.60;6.63;;;;;;;3.51;55.08;101401.34;10239844;28;20157;-63
2023/01/29 13:12:25;;;;;;;14.95;7.20;;;;;;;3.40;55.02;101392.41;10242283;28;20086;-63
2023/01/29 13:17:41;;;;;;;16.33;7.78;;;;;;;3.15;55.81;101396.72;10173694;28;20146;-64
2023/01/29 13:22:45;;;;;;;14.85;6.93;;;;;;;3.12;56.30;101389.81;10240834;28;20086;-63
2023/01/29 13:27:47;;;;;;;12.63;6.80;;;;;;;3.25;55.63;101395.16;10240779;28;20118;-64
2023/01/29 13:32:53;;;;;;;6.68;4.10;;;;;;;3.30;55.49;101394.88;10241699;28;20075;-62
2023/01/29 13:37:54;;;;;;;13.23;6.43;;;;;;;3.17;55.88;101390.34;10238678;28;20146;-63
2023/01/29 13:42:57;;;;;;;12.05;6.13;;;;;;;3.34;55.64;101378.59;10236943;28;20146;-63
2023/01/29 13:48:10;;;;;;;9.73;5.85;;;;;;;3.38;55.64;101376.59;10234544;28;20058;-63
2023/01/29 13:53:41;;;;;;;13.05;7.63;;;;;;;3.54;55.45;101373.75;10233250;28;20524;-63
2023/01/29 13:58:43;;;;;;;10.68;6.72;;;;;;;3.49;55.82;101379.34;10228844;28;20146;-65
2023/01/29 14:03:50;;;;;;;15.50;7.70;;;;;;;3.50;55.20;101369.59;10239469;28;20141;-65
2023/01/29 14:09:36;;;;;;;11.60;6.72;;;;;;;3.44;55.82;101359.38;10239663;28;20075;-63
2023/01/29 14:14:47;;;;;;;12.40;7.13;;;;;;;3.64;55.63;101364.16;10233233;28;20075;-63
2023/01/29 14:19:58;;;;;;;15.65;6.93;;;;;;;3.64;55.24;101358.00;10232150;28;20067;-63
2023/01/29 14:25:01;;;;;;;12.45;6.95;;;;;;;3.49;55.75;101351.94;10237319;28;20142;-65
2023/01/29 14:30:13;;;;;;;12.38;6.88;;;;;;;3.49;56.12;101339.47;10226912;28;20079;-63
2023/01/29 14:35:19;;;;;;;13.45;6.68;;;;;;;3.31;55.78;101343.41;10240374;28;20485;-64
2023/01/29 14:40:26;;;;;;;10.00;6.43;;;;;;;3.36;55.69;101339.50;10249727;28;20054;-65
2023/01/29 14:45:35;;;;;;;9.00;5.33;;;;;;;3.35;55.51;101342.25;10245368;28;20098;-63
2023/01/29 14:50:44;;;;;;;9.45;6.07;;;;;;;3.31;56.17;101336.28;10243354;28;20450;-65
2023/01/29 14:55:59;;;;;;;13.27;6.28;;;;;;;3.27;56.05;101318.00;10247261;28;20050;-62
2023/01/29 15:01:05;;;;;;;11.38;6.30;;;;;;;3.19;55.99;101318.53;10249558;28;20506;-65
2023/01/29 15:06:13;;;;;;;13.10;7.18;;;;;;;3.19;56.00;101313.22;10229466;28;20142;-63
2023/01/29 15:11:33;;;;;;;10.45;5.72;;;;;;;3.19;56.45;101299.94;10248542;28;20098;-65
2023/01/29 15:16:47;;;;;;;20.65;8.07;;;;;;;3.17;56.21;101297.38;10249562;28;20063;-65
2023/01/29 15:22:22;;;;;;;11.80;6.22;;;;;;;3.26;55.97;101295.03;10250996;28;20054;-64
2023/01/29 15:27:23;;;;;;;14.07;6.00;;;;;;;3.24;56.33;101284.53;10209064;28;20062;-65
2023/01/29 15:32:29;;;;;;;9.27;6.07;;;;;;;3.17;56.24;101278.78;10243532;28;20061;-65
2023/01/29 15:37:34;;;;;;;10.32;6.43;;;;;;;3.20;56.41;101282.16;10244443;28;20051;-61
2023/01/29 15:42:47;;;;;;;10.45;5.40;;;;;;;3.15;56.73;101267.41;10246826;28;20070;-63
2023/01/29 15:47:49;;;;;;;11.63;6.65;;;;;;;3.10;57.07;101250.94;10249141;28;20147;-63
2023/01/29 15:52:52;;;;;;;11.20;6.47;;;;;;;3.11;56.54;101249.97;10255063;28;20051;-66
2023/01/29 15:57:54;;;;;;;11.05;6.82;;;;;;;3.13;56.86;101239.25;10259716;28;20047;-64
2023/01/29 16:02:56;;;;;;;13.45;6.90;;;;;;;3.07;57.11;101242.34;10255444;28;20055;-64
2023/01/29 16:07:59;;;;;;;9.88;6.38;;;;;;;2.97;57.49;101260.69;10252323;28;20533;-64
2023/01/29 16:13:02;;;;;;;10.20;6.45;;;;;;;3.00;57.29;101267.59;10240873;28;20110;-63
2023/01/29 16:18:20;;;;;;;12.25;6.70;;;;;;;2.94;57.18;101275.03;10249106;28;20506;-63
2023/01/29 16:23:24;;;;;;;;;;;;;;;2.86;57.29;101282.66;10247856;28;20046;-64
2023/01/29 16:28:26;;;;;;;9.57;5.85;;;;;;;2.93;56.85;101291.91;10225816;28;19931;-63
2023/01/29 16:33:45;;;;;;;15.70;6.85;;;;;;;2.91;56.74;101304.44;10253524;28;20047;-62
2023/01/29 16:39:04;;;;;;;15.00;7.05;;;;;;;2.91;57.10;101300.94;10251303;28;20071;-63
2023/01/29 16:44:14;;;;;;;13.70;7.07;;;;;;;2.98;57.20;101308.41;10247071;28;20067;-62
2023/01/29 16:49:28;;;;;;;14.68;6.78;;;;;;;2.95;57.80;101299.78;10241194;28;20521;-63
2023/01/29 16:54:29;;;;;;;8.75;6.03;;;;;;;2.87;57.30;101302.13;10241769;28;20535;-62
2023/01/29 16:59:37;;;;;;;14.48;6.97;;;;;;;2.81;57.64;101307.84;10242523;28;20079;-62
2023/01/29 17:04:39;;;;;;;;;;;;;;;2.80;57.63;101309.63;10236207;28;20047;-62
2023/01/29 17:09:42;;;;;;;14.80;7.60;;;;;;;2.88;57.83;101303.78;10238238;28;20421;-62
2023/01/29 17:15:02;;;;;;;12.32;6.68;;;;;;;2.85;57.69;101296.91;10240711;28;20135;-62
2023/01/29 17:20:15;;;;;;;19.42;7.50;;;;;;;2.80;57.42;101304.31;10237394;28;20125;-62
2023/01/29 17:25:17;;;;;;;14.10;7.63;;;;;;;2.78;58.33;101316.84;10238579;28;20055;-63
2023/01/29 17:30:22;;;;;;;13.63;6.53;;;;;;;2.74;58.20;101312.69;10244349;28;20070;-62
2023/01/29 17:35:23;;;;;;;15.23;8.25;;;;;;;2.77;57.70;101316.00;10239032;28;20146;-61
2023/01/29 17:40:39;;;;;;;11.45;7.28;;;;;;;2.71;57.80;101312.91;10239762;28;20132;-61
2023/01/29 17:45:41;;;;;;;21.85;10.30;;;;;;;2.67;58.24;101316.72;10241215;28;20135;-62
2023/01/29 17:50:47;;;;;;;14.77;8.73;;;;;;;2.61;57.90;101317.97;10239770;28;20059;-61
2023/01/29 17:55:49;;;;;;;15.23;8.02;;;;;;;2.56;57.86;101307.63;10237227;28;20111;-61
2023/01/29 18:00:51;;;;;;;22.70;9.75;;;;;;;2.52;57.77;101298.16;10240234;28;20047;-61
2023/01/29 18:05:53;;;;;;;23.70;11.15;;;;;;;2.44;58.23;101296.97;10237545;28;20051;-62
2023/01/29 18:10:54;;;;;;;21.95;10.57;;;;;;;2.28;58.66;101286.50;10237003;28;20134;-62
2023/01/29 18:15:56;;;;;;;16.42;8.10;;;;;;;2.22;59.02;101279.78;10235814;28;20055;-62
2023/01/29 18:20:57;;;;;;;20.38;9.90;;;;;;;2.21;58.69;101282.53;10241264;28;20039;-62
2023/01/29 18:25:58;;;;;;;21.40;11.02;;;;;;;2.15;58.79;101274.03;10245992;28;20047;-62
2023/01/29 18:31:01;;;;;;;17.83;9.75;;;;;;;2.04;59.18;101251.81;10238314;28;20497;-61
2023/01/29 18:36:05;;;;;;;19.80;10.52;;;;;;;1.97;59.41;101254.00;10244930;28;20047;-61
2023/01/29 18:41:09;;;;;;;18.85;9.90;;;;;;;1.91;59.55;101263.19;10230865;28;20127;-61
2023/01/29 18:46:10;;;;;;;18.10;10.55;;;;;;;1.89;60.01;101261.59;10239661;28;20051;-61
2023/01/29 18:51:12;;;;;;;22.15;10.80;;;;;;;1.91;60.18;101254.38;10243617;28;20050;-61
2023/01/29 18:56:13;;;;;;;20.20;10.35;;;;;;;1.87;59.69;101252.88;10223639;28;20044;-62
2023/01/29 19:01:15;;;;;;;20.35;9.77;;;;;;;1.86;60.16;101243.25;10242094;28;20399;-62
2023/01/29 19:06:16;;;;;;;16.65;9.52;;;;;;;1.75;60.73;101228.00;10242031;28;20071;-60
2023/01/29 19:11:18;;;;;;;22.00;11.15;;;;;;;1.68;60.62;101227.56;10241896;28;20146;-62
2023/01/29 19:16:19;;;;;;;23.88;11.73;;;;;;;1.69;61.43;101223.94;10242958;28;20059;-62
2023/01/29 19:21:22;;;;;;;19.20;9.95;;;;;;;1.74;60.90;101211.25;10240179;28;20087;-62
2023/01/29 19:26:23;;;;;;;21.58;10.57;;;;;;;1.72;61.17;101205.22;10241181;28;20047;-62
2023/01/29 19:31:24;;;;;;;23.23;11.20;;;;;;;1.69;62.10;101209.84;10242977;28;20479;-63
2023/01/29 19:36:26;;;;;;;20.58;10.85;;;;;;;1.70;61.79;101215.06;10240876;28;20498;-63
2023/01/29 19:41:28;;;;;;;26.98;11.52;;;;;;;1.72;61.54;101212.31;10241976;28;20055;-62
2023/01/29 19:46:29;;;;;;;25.25;12.27;;;;;;;1.72;61.00;101204.38;10237832;28;20146;-62
2023/01/29 19:51:31;;;;;;;20.23;10.00;;;;;;;1.64;61.86;101204.84;10233018;28;20055;-62
2023/01/29 19:56:33;;;;;;;20.00;10.40;;;;;;;1.56;61.86;101209.75;10238738;28;20051;-62
2023/01/29 20:01:34;;;;;;;19.33;9.07;;;;;;;1.53;62.13;101213.47;10237906;28;20123;-62
2023/01/29 20:06:36;;;;;;;20.88;10.57;;;;;;;1.51;62.09;101218.00;10240982;28;20118;-62
2023/01/29 20:11:37;;;;;;;19.73;9.80;;;;;;;1.50;62.64;101212.78;10239344;28;20066;-62
2023/01/29 20:16:39;;;;;;;19.63;10.23;;;;;;;1.50;62.66;101205.72;10240183;28;20204;-62
2023/01/29 20:21:41;;;;;;;28.00;11.43;;;;;;;1.50;63.21;101204.84;10233541;28;20121;-61
2023/01/29 20:26:46;;;;;;;26.33;11.60;;;;;;;1.50;63.35;101188.94;10237774;28;20135;-61
2023/01/29 20:31:47;;;;;;;25.05;12.00;;;;;;;1.50;62.72;101197.78;10243237;28;20130;-62
2023/01/29 20:36:49;;;;;;;19.90;10.02;;;;;;;1.56;62.52;101192.09;10240779;28;20047;-61
2023/01/29 20:41:50;;;;;;;23.80;10.20;;;;;;;1.60;63.23;101184.78;10243156;28;20573;-62
2023/01/29 20:46:52;;;;;;;23.38;11.40;;;;;;;1.59;62.88;101177.78;10243390;28;20051;-62
2023/01/29 20:51:54;;;;;;;28.45;12.70;;;;;;;1.65;62.97;101180.03;10244260;28;20054;-62
2023/01/29 20:56:55;;;;;;;25.85;11.98;;;;;;;1.69;62.92;101159.50;10239752;28;20771;-62
2023/01/29 21:01:56;;;;;;;26.05;11.07;;;;;;;1.71;62.33;101150.50;10246659;28;20614;-62
2023/01/29 21:06:58;;;;;;;30.67;13.63;;;;;;;1.71;62.89;101150.50;10239256;28;20142;-62
2023/01/29 21:12:00;;;;;;;33.55;13.80;;;;;;;1.82;62.52;101156.88;10242260;28;20106;-60
2023/01/29 21:17:01;;;;;;;31.17;14.15;;;;;;;1.75;63.16;101141.38;10239435;28;20466;-62
2023/01/29 21:22:03;;;;;;;28.30;12.23;;;;;;;1.75;62.79;101129.94;10239907;28;20079;-62
2023/01/29 21:27:04;;;;;;;32.25;13.93;;;;;;;1.86;62.85;101127.44;10240559;28;20045;-60
2023/01/29 21:32:07;;;;;;;31.38;13.90;;;;;;;1.94;62.60;101113.69;10242785;28;20098;-62
2023/01/29 21:37:09;;;;;;;32.55;13.25;;;;;;;2.07;63.28;101087.19;10241512;28;20059;-62
2023/01/29 21:47:31;;;;;;;25.85;12.68;;;;;;;2.12;63.38;101058.59;10237570;28;20450;-63
2023/01/29 21:52:32;;;;;;;26.85;11.60;;;;;;;2.10;63.77;101026.84;10246118;28;20130;-62
2023/01/29 21:57:33;;;;;;;25.35;12.35;;;;;;;2.07;63.83;101040.31;10249706;28;20135;-62
2023/01/29 22:02:35;;;;;;;25.30;12.60;;;;;;;2.13;63.93;101037.28;10254323;28;20063;-62
2023/01/29 22:07:37;;;;;;;26.58;13.25;;;;;;;2.19;63.67;101041.28;10252104;28;20051;-63
2023/01/29 22:12:38;;;;;;;29.50;13.02;;;;;;;2.25;63.32;101047.97;10251926;28;20047;-63
2023/01/29 22:17:40;;;;;;;26.13;13.40;;;;;;;2.27;63.56;101038.97;10252822;28;20487;-62
2023/01/29 22:22:42;;;;;;;31.08;13.00;;;;;;;2.34;62.90;101037.56;10255428;28;20051;-61
2023/01/29 22:27:43;;;;;;;28.02;12.27;;;;;;;2.25;63.29;101034.72;10252294;28;20043;-63
2023/01/29 22:32:44;;;;;;;28.00;13.82;;;;;;;2.30;63.76;101022.00;10252288;28;20074;-61
2023/01/29 22:37:46;;;;;;;25.38;12.75;;;;;;;2.37;63.60;101021.47;10252785;28;20561;-62
2023/01/29 22:42:47;;;;;;;25.35;12.38;;;;;;;2.35;63.12;101014.53;10256462;28;20081;-61
2023/01/29 22:47:49;;;;;;;28.38;11.95;;;;;;;2.37;63.09;101013.50;10255380;28;20055;-61
2023/01/29 22:52:52;;;;;;;26.33;13.38;;;;;;;2.45;63.21;100999.72;10254193;28;20081;-61
2023/01/29 22:57:54;;;;;;;25.88;12.63;;;;;;;2.39;63.19;100989.53;10253046;28;20079;-61
2023/01/29 23:02:56;;;;;;;27.58;12.30;;;;;;;2.44;62.94;100958.19;10249948;28;20074;-61
2023/01/29 23:07:57;;;;;;;24.88;12.93;;;;;;;2.37;63.57;100965.75;10250848;28;20079;-61
2023/01/29 23:12:58;;;;;;;30.27;13.38;;;;;;;2.40;63.50;100956.72;10246474;28;20047;-62
2023/01/29 23:18:00;;;;;;;27.17;13.13;;;;;;;2.37;64.09;100957.78;10246098;28;20118;-62
2023/01/29 23:23:01;;;;;;;27.73;13.35;;;;;;;2.41;63.82;100958.44;10246940;28;20114;-61
2023/01/29 23:28:03;;;;;;;30.70;13.10;;;;;;;2.51;63.25;100972.75;10242167;28;20051;-61
2023/01/29 23:33:04;;;;;;;31.67;13.07;;;;;;;2.53;63.74;100962.88;10244701;28;20086;-61
2023/01/29 23:38:06;;;;;;;26.88;11.65;;;;;;;2.54;63.81;100964.53;10244835;28;20063;-61
2023/01/29 23:43:07;;;;;;;22.45;11.63;;;;;;;2.51;63.72;100953.31;10244546;28;20083;-62
2023/01/29 23:48:09;;;;;;;26.00;11.30;;;;;;;2.56;64.07;100953.81;10226401;28;20098;-62
2023/01/29 23:53:10;;;;;;;25.92;12.07;;;;;;;2.54;63.81;100931.84;10243760;28;20047;-62
2023/01/29 23:58:11;;;;;;;27.20;12.02;;;;;;;2.56;63.79;100930.78;10247995;28;20049;-62
